createdAt,value
2023-01-29T00:00:22.254Z,2.20
2023-01-29T00:02:49.308Z,1.83
2023-01-29T00:05:27.631Z,2.20
2023-01-29T00:07:56.393Z,1.90
2023-01-29T00:10:25.237Z,2.37
2023-01-29T00:12:51.963Z,1.90
2023-01-29T00:15:18.791Z,2.10
2023-01-29T00:17:45.411Z,2.30
2023-01-29T00:20:12.454Z,1.87
2023-01-29T00:22:39.152Z,2.30
2023-01-29T00:25:06.352Z,2.27
2023-01-29T00:27:32.964Z,2.53
2023-01-29T00:30:09.522Z,2.27
2023-01-29T00:32:36.320Z,2.07
2023-01-29T00:35:03.516Z,2.33
2023-01-29T00:37:30.527Z,2.33
2023-01-29T00:39:57.718Z,2.20
2023-01-29T00:42:43.462Z,2.10
2023-01-29T00:45:12.043Z,2.20
2023-01-29T00:47:38.798Z,2.60
2023-01-29T00:50:11.005Z,2.50
2023-01-29T00:52:38.428Z,2.60
2023-01-29T00:55:06.251Z,2.57
2023-01-29T00:57:34.573Z,2.93
2023-01-29T01:00:02.155Z,3.07
2023-01-29T01:02:47.957Z,2.80
2023-01-29T01:05:19.726Z,3.13
2023-01-29T01:07:47.860Z,2.70
2023-01-29T01:10:21.632Z,2.70
2023-01-29T01:12:58.839Z,2.27
2023-01-29T01:15:30.715Z,2.80
2023-01-29T01:18:00.195Z,2.80
2023-01-29T01:20:29.884Z,2.60
2023-01-29T01:22:57.182Z,2.30
2023-01-29T01:25:26.070Z,2.73
2023-01-29T01:27:57.395Z,2.70
2023-01-29T01:30:24.974Z,2.47
2023-01-29T01:32:51.735Z,2.50
2023-01-29T01:35:18.820Z,2.50
2023-01-29T01:37:45.458Z,2.70
2023-01-29T01:40:18.932Z,2.33
2023-01-29T01:42:55.571Z,2.57
2023-01-29T01:45:34.326Z,2.87
2023-01-29T01:48:17.089Z,2.70
2023-01-29T01:50:50.526Z,2.40
2023-01-29T01:53:26.593Z,2.37
2023-01-29T01:56:02.060Z,2.30
2023-01-29T01:58:39.553Z,2.53
2023-01-29T02:01:09.178Z,2.30
2023-01-29T02:04:03.844Z,2.13
2023-01-29T02:06:50.233Z,2.20
2023-01-29T02:09:35.367Z,2.23
2023-01-29T02:12:12.334Z,2.50
2023-01-29T02:14:41.765Z,2.50
2023-01-29T02:17:20.008Z,2.70
2023-01-29T02:20:06.132Z,2.40
2023-01-29T02:22:47.767Z,2.70
2023-01-29T02:25:39.283Z,2.33
2023-01-29T02:28:24.839Z,2.40
2023-01-29T02:31:06.491Z,2.20
2023-01-29T02:33:36.211Z,2.40
2023-01-29T02:36:12.260Z,2.53
2023-01-29T02:39:03.565Z,2.57
2023-01-29T02:41:38.657Z,2.50
2023-01-29T02:44:12.722Z,3.00
2023-01-29T02:46:44.487Z,2.77
2023-01-29T02:49:18.608Z,2.80
2023-01-29T02:51:51.610Z,2.87
2023-01-29T02:54:42.013Z,2.60
2023-01-29T02:57:23.175Z,2.67
2023-01-29T03:00:04.906Z,2.63
2023-01-29T03:02:52.279Z,3.00
2023-01-29T03:05:30.970Z,2.73
2023-01-29T03:08:04.223Z,3.00
2023-01-29T03:10:40.742Z,2.80
2023-01-29T03:13:20.879Z,2.80
2023-01-29T03:16:01.320Z,2.87
2023-01-29T03:18:50.812Z,2.90
2023-01-29T03:21:41.996Z,3.03
2023-01-29T03:24:33.457Z,2.80
2023-01-29T03:27:22.697Z,3.00
2023-01-29T03:30:10.443Z,3.00
2023-01-29T03:32:51.891Z,2.77
2023-01-29T03:35:36.689Z,3.10
2023-01-29T03:38:07.325Z,3.07
2023-01-29T03:40:39.989Z,2.87
2023-01-29T03:43:54.892Z,3.07
2023-01-29T03:46:38.168Z,3.10
2023-01-29T03:49:35.974Z,3.30
2023-01-29T03:52:09.543Z,3.60
2023-01-29T03:55:06.501Z,2.80
2023-01-29T03:57:40.382Z,3.10
2023-01-29T04:00:27.075Z,3.40
2023-01-29T04:03:21.832Z,2.80
2023-01-29T04:05:58.606Z,3.07
2023-01-29T04:08:34.046Z,2.77
2023-01-29T04:11:11.435Z,3.00
2023-01-29T04:13:40.037Z,2.90
2023-01-29T04:16:11.626Z,2.83
2023-01-29T04:18:57.211Z,3.23
2023-01-29T04:21:32.013Z,2.97
2023-01-29T04:23:59.426Z,3.30
2023-01-29T04:26:44.668Z,2.93
2023-01-29T04:29:38.382Z,2.43
2023-01-29T04:32:22.230Z,3.20
2023-01-29T04:35:24.668Z,4.50
2023-01-29T04:38:17.592Z,4.10
2023-01-29T04:41:02.289Z,4.00
2023-01-29T04:43:53.695Z,3.73
2023-01-29T04:46:31.876Z,3.33
2023-01-29T04:49:06.967Z,3.20
2023-01-29T04:51:33.571Z,3.70
2023-01-29T04:54:12.696Z,3.40
2023-01-29T04:57:03.702Z,3.50
2023-01-29T04:59:45.763Z,3.23
2023-01-29T05:02:13.379Z,3.30
2023-01-29T05:04:43.173Z,3.77
2023-01-29T05:07:13.923Z,3.50
2023-01-29T05:09:45.122Z,3.50
2023-01-29T05:12:15.994Z,3.53
2023-01-29T05:14:44.695Z,3.40
2023-01-29T05:17:20.471Z,3.40
2023-01-29T05:19:47.737Z,3.60
2023-01-29T05:22:17.855Z,4.10
2023-01-29T05:24:44.862Z,3.70
2023-01-29T05:27:43.397Z,3.70
2023-01-29T05:30:10.537Z,3.57
2023-01-29T05:32:37.346Z,3.33
2023-01-29T05:35:04.237Z,3.40
2023-01-29T05:37:30.971Z,3.93
2023-01-29T05:39:57.607Z,4.20
2023-01-29T05:42:24.311Z,4.07
2023-01-29T05:44:50.996Z,3.40
2023-01-29T05:47:20.933Z,3.70
2023-01-29T05:49:47.723Z,4.10
2023-01-29T05:52:14.359Z,4.23
2023-01-29T05:54:41.060Z,3.70
2023-01-29T05:57:07.665Z,3.97
2023-01-29T05:59:34.380Z,5.00
2023-01-29T06:02:01.036Z,5.30
2023-01-29T06:04:27.700Z,4.00
2023-01-29T06:06:54.372Z,4.43
2023-01-29T06:09:21.094Z,4.30
2023-01-29T06:11:47.726Z,4.07
2023-01-29T06:14:14.411Z,4.60
2023-01-29T06:16:41.007Z,3.80
2023-01-29T06:19:07.659Z,4.17
2023-01-29T06:21:34.394Z,4.60
2023-01-29T06:24:01.123Z,4.27
2023-01-29T06:26:27.885Z,6.30
2023-01-29T06:28:54.682Z,6.20
2023-01-29T06:31:37.225Z,5.10
2023-01-29T06:34:06.132Z,5.03
2023-01-29T06:36:32.762Z,4.60
2023-01-29T06:38:59.510Z,4.40
2023-01-29T06:41:26.275Z,4.10
2023-01-29T06:43:52.929Z,4.30
2023-01-29T06:46:19.708Z,4.50
2023-01-29T06:48:46.349Z,4.07
2023-01-29T06:51:13.000Z,4.07
2023-01-29T06:53:40.550Z,4.23
2023-01-29T06:56:08.073Z,3.90
2023-01-29T06:58:38.249Z,3.90
2023-01-29T07:01:10.318Z,3.97
2023-01-29T07:03:37.295Z,4.30
2023-01-29T07:06:04.765Z,4.17
2023-01-29T07:08:31.754Z,4.00
2023-01-29T07:11:00.395Z,4.10
2023-01-29T07:13:27.496Z,4.40
2023-01-29T07:15:54.148Z,4.60
2023-01-29T07:18:20.860Z,4.17
2023-01-29T07:20:47.506Z,4.60
2023-01-29T07:23:14.927Z,4.33
2023-01-29T07:25:41.632Z,4.70
2023-01-29T07:28:08.434Z,4.07
2023-01-29T07:30:35.897Z,4.77
2023-01-29T07:33:08.870Z,4.43
2023-01-29T07:35:40.790Z,4.17
2023-01-29T07:38:08.892Z,4.47
2023-01-29T07:40:35.781Z,4.77
2023-01-29T07:43:05.537Z,4.53
2023-01-29T07:45:38.501Z,4.83
2023-01-29T07:48:06.827Z,4.03
2023-01-29T07:50:35.259Z,5.37
2023-01-29T07:53:02.367Z,4.57
2023-01-29T07:55:29.441Z,5.03
2023-01-29T07:57:57.255Z,5.20
2023-01-29T08:00:24.070Z,5.23
2023-01-29T08:02:50.794Z,5.37
2023-01-29T08:05:17.500Z,5.50
2023-01-29T08:07:49.259Z,5.87
2023-01-29T08:10:20.836Z,5.40
2023-01-29T08:12:47.563Z,12.37
2023-01-29T08:15:14.216Z,7.93
2023-01-29T08:17:56.114Z,7.60
2023-01-29T08:20:24.264Z,7.30
2023-01-29T08:22:58.826Z,7.40
2023-01-29T08:25:28.915Z,7.97
2023-01-29T08:27:59.858Z,18.63
2023-01-29T08:30:28.922Z,9.30
2023-01-29T08:32:55.702Z,9.77
2023-01-29T08:35:22.964Z,8.83
2023-01-29T08:37:59.145Z,9.33
2023-01-29T08:40:27.660Z,10.17
2023-01-29T08:43:07.757Z,8.27
2023-01-29T08:45:38.775Z,8.93
2023-01-29T08:48:05.936Z,9.00
2023-01-29T08:50:34.839Z,8.80
2023-01-29T08:53:05.164Z,9.30
2023-01-29T08:55:31.834Z,10.47
2023-01-29T08:57:58.575Z,9.50
2023-01-29T09:00:25.358Z,9.27
2023-01-29T09:02:52.194Z,9.30
2023-01-29T09:05:19.331Z,8.67
2023-01-29T09:07:46.211Z,8.40
2023-01-29T09:10:13.417Z,9.13
2023-01-29T09:12:40.058Z,10.03
2023-01-29T09:15:07.219Z,8.07
2023-01-29T09:17:33.899Z,6.20
2023-01-29T09:20:00.517Z,5.27
2023-01-29T09:22:27.172Z,3.80
2023-01-29T09:24:53.920Z,3.37
2023-01-29T09:27:20.553Z,3.23
2023-01-29T09:29:47.180Z,3.47
2023-01-29T09:32:14.639Z,3.00
2023-01-29T09:34:41.347Z,3.27
2023-01-29T09:37:08.012Z,3.33
2023-01-29T09:39:34.828Z,2.50
2023-01-29T09:42:10.743Z,5.13
2023-01-29T09:44:52.963Z,6.10
2023-01-29T09:47:20.464Z,5.80
2023-01-29T09:49:51.162Z,5.10
2023-01-29T09:52:22.174Z,5.30
2023-01-29T09:55:10.602Z,4.87
2023-01-29T09:57:50.271Z,3.93
2023-01-29T10:00:40.290Z,4.60
2023-01-29T10:03:25.695Z,3.57
2023-01-29T10:05:58.098Z,4.50
2023-01-29T10:08:41.774Z,3.70
2023-01-29T10:11:24.002Z,3.97
2023-01-29T10:14:18.252Z,4.20
2023-01-29T10:17:01.219Z,3.83
2023-01-29T10:19:48.252Z,3.90
2023-01-29T10:22:33.815Z,4.23
2023-01-29T10:25:03.955Z,3.57
2023-01-29T10:27:34.619Z,3.83
2023-01-29T10:30:06.642Z,4.07
2023-01-29T10:32:36.868Z,3.90
2023-01-29T10:35:28.075Z,4.37
2023-01-29T10:37:56.379Z,3.50
2023-01-29T10:40:47.076Z,3.80
2023-01-29T10:43:38.969Z,4.20
2023-01-29T10:46:32.155Z,4.30
2023-01-29T10:49:08.289Z,4.43
2023-01-29T10:52:04.588Z,4.43
2023-01-29T10:54:45.704Z,4.50
2023-01-29T10:57:38.495Z,5.20
2023-01-29T11:00:18.257Z,5.30
2023-01-29T11:02:48.323Z,4.30
2023-01-29T11:05:41.035Z,5.10
2023-01-29T11:08:13.572Z,4.90
2023-01-29T11:11:13.423Z,4.97
2023-01-29T11:13:46.984Z,4.87
2023-01-29T11:16:13.980Z,4.97
2023-01-29T11:18:53.759Z,4.50
2023-01-29T11:21:21.374Z,4.43
2023-01-29T11:23:48.020Z,4.15
2023-01-29T11:26:20.709Z,3.92
2023-01-29T11:28:49.641Z,3.80
2023-01-29T11:31:38.196Z,3.90
2023-01-29T11:34:21.067Z,4.50
2023-01-29T11:37:04.557Z,4.32
2023-01-29T11:39:32.533Z,4.53
2023-01-29T11:42:04.619Z,4.28
2023-01-29T11:44:41.338Z,4.70
2023-01-29T11:47:20.107Z,4.67
2023-01-29T11:49:50.206Z,4.77
2023-01-29T11:52:23.723Z,4.30
2023-01-29T11:54:58.648Z,4.33
2023-01-29T11:57:35.796Z,5.07
2023-01-29T12:00:31.247Z,4.70
2023-01-29T12:03:30.562Z,4.10
2023-01-29T12:06:21.732Z,4.07
2023-01-29T12:09:03.144Z,3.97
2023-01-29T12:11:29.822Z,4.40
2023-01-29T12:13:59.218Z,4.23
2023-01-29T12:16:40.612Z,4.25
2023-01-29T12:19:30.215Z,3.72
2023-01-29T12:22:20.315Z,4.18
2023-01-29T12:24:57.569Z,4.78
2023-01-29T12:27:35.911Z,4.40
2023-01-29T12:30:11.436Z,4.30
2023-01-29T12:32:49.666Z,4.30
2023-01-29T12:35:31.647Z,4.87
2023-01-29T12:38:14.545Z,5.03
2023-01-29T12:40:48.720Z,4.93
2023-01-29T12:43:33.394Z,4.50
2023-01-29T12:46:02.084Z,5.30
2023-01-29T12:48:34.220Z,5.40
2023-01-29T12:51:11.900Z,5.10
2023-01-29T12:53:48.127Z,5.03
2023-01-29T12:56:33.156Z,5.00
2023-01-29T12:59:04.900Z,4.80
2023-01-29T13:01:38.354Z,5.57
2023-01-29T13:04:29.440Z,5.20
2023-01-29T13:07:06.003Z,4.90
2023-01-29T13:09:34.683Z,5.40
2023-01-29T13:12:07.134Z,4.83
2023-01-29T13:14:46.860Z,5.73
2023-01-29T13:17:21.393Z,5.57
2023-01-29T13:19:52.344Z,5.37
2023-01-29T13:22:25.945Z,6.60
2023-01-29T13:25:04.723Z,6.40
2023-01-29T13:27:34.873Z,6.00
2023-01-29T13:30:01.894Z,5.37
2023-01-29T13:32:31.155Z,5.27
2023-01-29T13:35:12.556Z,5.87
2023-01-29T13:37:47.917Z,5.60
2023-01-29T13:40:26.592Z,5.50
2023-01-29T13:42:55.256Z,5.87
2023-01-29T13:45:34.930Z,5.63
2023-01-29T13:48:23.341Z,6.00
2023-01-29T13:50:51.679Z,5.90
2023-01-29T13:53:25.161Z,6.17
2023-01-29T13:55:51.862Z,6.30
2023-01-29T13:58:38.394Z,6.17
2023-01-29T14:01:05.135Z,6.33
2023-01-29T14:03:40.015Z,6.27
2023-01-29T14:06:40.083Z,6.27
2023-01-29T14:09:34.394Z,7.03
2023-01-29T14:12:01.164Z,6.00
2023-01-29T14:14:49.790Z,6.93
2023-01-29T14:17:18.434Z,6.57
2023-01-29T14:19:53.764Z,6.50
2023-01-29T14:22:26.960Z,6.33
2023-01-29T14:24:57.442Z,7.00
2023-01-29T14:27:25.687Z,7.20
2023-01-29T14:30:01.241Z,6.47
2023-01-29T14:32:28.283Z,6.73
2023-01-29T14:35:03.690Z,7.37
2023-01-29T14:37:39.484Z,6.73
2023-01-29T14:40:12.144Z,6.67
2023-01-29T14:42:55.592Z,7.27
2023-01-29T14:45:30.812Z,7.47
2023-01-29T14:48:03.538Z,7.60
2023-01-29T14:50:31.838Z,7.90
2023-01-29T14:53:26.025Z,7.70
2023-01-29T14:56:01.121Z,7.93
2023-01-29T14:58:27.703Z,8.10
2023-01-29T15:00:57.216Z,8.40
2023-01-29T15:03:45.724Z,7.63
2023-01-29T15:06:32.392Z,12.43
2023-01-29T15:09:22.039Z,7.67
2023-01-29T15:12:36.258Z,8.77
2023-01-29T15:15:15.993Z,8.50
2023-01-29T15:17:51.899Z,8.27
2023-01-29T15:20:34.081Z,8.77
2023-01-29T15:23:06.011Z,8.20
2023-01-29T15:25:37.368Z,8.50
2023-01-29T15:28:08.554Z,8.23
2023-01-29T15:30:36.365Z,8.43
2023-01-29T15:33:03.989Z,8.10
2023-01-29T15:35:40.981Z,8.27
2023-01-29T15:38:18.299Z,8.60
2023-01-29T15:41:02.953Z,8.60
2023-01-29T15:43:34.644Z,8.80
2023-01-29T15:46:04.575Z,8.40
2023-01-29T15:48:43.520Z,8.97
2023-01-29T15:51:17.376Z,9.37
2023-01-29T15:53:49.873Z,9.33
2023-01-29T15:56:21.447Z,9.57
2023-01-29T15:58:49.618Z,9.93
2023-01-29T16:01:16.677Z,9.33
2023-01-29T16:03:44.226Z,9.93
2023-01-29T16:06:11.636Z,9.87
2023-01-29T16:08:40.481Z,10.00
2023-01-29T16:11:08.597Z,10.07
2023-01-29T16:13:42.849Z,10.17
2023-01-29T16:16:15.568Z,10.93
2023-01-29T16:18:57.867Z,11.23
2023-01-29T16:21:35.551Z,11.07
2023-01-29T16:24:09.348Z,11.97
2023-01-29T16:26:44.895Z,11.10
2023-01-29T16:29:14.709Z,11.17
2023-01-29T16:31:44.491Z,10.93
2023-01-29T16:34:30.566Z,10.90
2023-01-29T16:36:57.586Z,10.80
2023-01-29T16:39:28.638Z,10.50
2023-01-29T16:42:08.003Z,10.73
2023-01-29T16:44:36.768Z,10.77
2023-01-29T16:47:25.501Z,10.77
2023-01-29T16:50:16.348Z,10.47
2023-01-29T16:52:57.744Z,10.73
2023-01-29T16:55:25.925Z,11.23
2023-01-29T16:57:56.185Z,10.33
2023-01-29T17:00:28.644Z,10.63
2023-01-29T17:03:08.321Z,11.43
2023-01-29T17:05:37.828Z,11.40
2023-01-29T17:08:06.165Z,12.93
2023-01-29T17:10:33.719Z,13.53
2023-01-29T17:13:16.735Z,12.23
2023-01-29T17:15:43.328Z,12.10
2023-01-29T17:18:24.888Z,12.70
2023-01-29T17:20:53.010Z,12.47
2023-01-29T17:23:19.773Z,12.93
2023-01-29T17:25:47.412Z,11.90
2023-01-29T17:28:16.150Z,12.03
2023-01-29T17:30:46.401Z,13.10
2023-01-29T17:33:22.667Z,12.07
2023-01-29T17:35:50.425Z,12.43
2023-01-29T17:38:25.856Z,13.23
2023-01-29T17:40:57.989Z,12.33
2023-01-29T17:43:24.626Z,13.37
2023-01-29T17:45:51.499Z,12.60
2023-01-29T17:48:21.560Z,12.60
2023-01-29T17:50:52.906Z,12.03
2023-01-29T17:53:21.175Z,11.90
2023-01-29T17:55:48.344Z,11.20
2023-01-29T17:58:19.486Z,12.10
2023-01-29T18:00:46.951Z,12.43
2023-01-29T18:03:14.159Z,11.67
2023-01-29T18:05:42.531Z,11.73
2023-01-29T18:08:15.572Z,11.53
2023-01-29T18:10:42.267Z,12.40
2023-01-29T18:13:08.950Z,11.90
2023-01-29T18:15:35.771Z,11.93
2023-01-29T18:18:02.537Z,11.77
2023-01-29T18:20:30.152Z,12.13
2023-01-29T18:22:57.279Z,13.40
2023-01-29T18:25:25.733Z,12.47
2023-01-29T18:27:52.449Z,11.83
2023-01-29T18:30:19.116Z,12.67
2023-01-29T18:32:47.443Z,12.47
2023-01-29T18:35:14.722Z,12.57
2023-01-29T18:37:41.440Z,12.73
2023-01-29T18:40:09.369Z,12.57
2023-01-29T18:42:36.119Z,12.40
2023-01-29T18:45:03.867Z,13.07
2023-01-29T18:47:30.646Z,13.27
2023-01-29T18:49:57.334Z,13.50
2023-01-29T18:52:24.213Z,13.10
2023-01-29T18:54:50.899Z,14.07
2023-01-29T18:58:26.146Z,14.20
2023-01-29T19:00:04.729Z,14.27
2023-01-29T19:02:31.559Z,14.20
2023-01-29T19:04:58.323Z,14.77
2023-01-29T19:07:25.012Z,13.83
2023-01-29T19:09:51.769Z,14.07
2023-01-29T19:12:18.468Z,14.03
2023-01-29T19:14:45.209Z,14.00
2023-01-29T19:17:11.921Z,14.93
2023-01-29T19:19:38.571Z,14.03
2023-01-29T19:22:05.876Z,13.50
2023-01-29T19:24:36.285Z,13.73
2023-01-29T19:27:03.003Z,14.20
2023-01-29T19:29:29.753Z,14.27
2023-01-29T19:31:56.387Z,13.90
2023-01-29T19:34:23.799Z,15.07
2023-01-29T19:36:50.514Z,13.83
2023-01-29T19:39:17.292Z,14.87
2023-01-29T19:41:44.030Z,13.47
2023-01-29T19:44:11.437Z,13.63
2023-01-29T19:46:39.022Z,14.07
2023-01-29T19:49:06.674Z,13.00
2023-01-29T19:51:33.320Z,15.00
2023-01-29T19:53:59.987Z,15.20
2023-01-29T19:56:28.572Z,13.93
2023-01-29T19:58:57.306Z,14.73
2023-01-29T20:01:30.451Z,14.70
2023-01-29T20:03:57.641Z,14.30
2023-01-29T20:06:27.230Z,14.70
2023-01-29T20:08:54.187Z,14.63
2023-01-29T20:11:22.766Z,13.57
2023-01-29T20:13:51.198Z,14.97
2023-01-29T20:16:19.102Z,13.63
2023-01-29T20:18:46.128Z,14.37
2023-01-29T20:21:15.383Z,13.77
2023-01-29T20:23:44.248Z,14.77
2023-01-29T20:26:14.355Z,14.47
2023-01-29T20:28:41.660Z,14.70
2023-01-29T20:31:09.741Z,14.70
2023-01-29T20:33:39.087Z,14.70
2023-01-29T20:36:09.692Z,14.60
2023-01-29T20:38:36.979Z,14.83
2023-01-29T20:41:09.541Z,14.70
2023-01-29T20:43:36.460Z,15.27
2023-01-29T20:46:03.975Z,14.30
2023-01-29T20:48:31.411Z,16.17
2023-01-29T20:51:09.193Z,16.10
2023-01-29T20:53:36.891Z,15.63
2023-01-29T20:56:04.477Z,15.80
2023-01-29T20:58:31.546Z,16.60
2023-01-29T21:00:58.380Z,15.97
2023-01-29T21:03:25.128Z,15.43
2023-01-29T21:05:52.216Z,15.40
2023-01-29T21:08:18.905Z,15.20
2023-01-29T21:10:45.704Z,15.27
2023-01-29T21:13:12.774Z,15.23
2023-01-29T21:15:41.847Z,14.87
2023-01-29T21:18:08.566Z,15.77
2023-01-29T21:20:36.097Z,14.87
2023-01-29T21:23:05.936Z,15.23
2023-01-29T21:25:33.792Z,14.73
2023-01-29T21:28:01.026Z,15.43
2023-01-29T21:30:28.100Z,15.97
2023-01-29T21:32:54.968Z,15.63
2023-01-29T21:35:22.046Z,15.87
2023-01-29T21:37:48.962Z,14.60
2023-01-29T21:40:16.430Z,14.63
2023-01-29T21:43:02.265Z,15.23
2023-01-29T21:45:29.299Z,14.80
2023-01-29T21:47:56.141Z,14.80
2023-01-29T21:50:22.922Z,15.77
2023-01-29T21:52:49.620Z,14.23
2023-01-29T21:55:16.635Z,14.93
2023-01-29T21:57:43.380Z,15.20
2023-01-29T22:00:12.364Z,15.57
2023-01-29T22:02:39.729Z,15.90
2023-01-29T22:05:18.258Z,16.37
2023-01-29T22:07:46.638Z,15.93
2023-01-29T22:10:13.426Z,16.23
2023-01-29T22:12:40.346Z,15.83
2023-01-29T22:15:08.001Z,15.87
2023-01-29T22:17:35.334Z,16.87
2023-01-29T22:20:02.350Z,15.60
2023-01-29T22:22:29.011Z,15.37
2023-01-29T22:24:57.585Z,15.53
2023-01-29T22:27:24.562Z,14.97
2023-01-29T22:29:51.432Z,14.97
2023-01-29T22:32:18.287Z,14.97
2023-01-29T22:34:44.987Z,14.37
2023-01-29T22:37:11.603Z,15.17
2023-01-29T22:39:38.258Z,15.20
2023-01-29T22:42:05.118Z,14.20
2023-01-29T22:44:31.819Z,15.73
2023-01-29T22:46:58.430Z,14.87
2023-01-29T22:49:25.708Z,14.80
2023-01-29T22:52:09.944Z,14.70
2023-01-29T22:54:41.646Z,14.37
2023-01-29T22:57:10.838Z,14.23
2023-01-29T22:59:37.654Z,14.77
2023-01-29T23:02:05.191Z,13.07
2023-01-29T23:04:31.946Z,14.53
2023-01-29T23:06:58.721Z,13.87
2023-01-29T23:09:25.357Z,14.80
2023-01-29T23:11:52.020Z,14.27
2023-01-29T23:14:18.919Z,14.43
2023-01-29T23:16:45.581Z,14.33
2023-01-29T23:19:12.406Z,14.67
2023-01-29T23:21:39.655Z,13.30
2023-01-29T23:24:07.675Z,14.37
2023-01-29T23:26:52.947Z,13.37
2023-01-29T23:29:19.572Z,14.07
2023-01-29T23:31:46.325Z,14.27
2023-01-29T23:34:13.755Z,13.30
2023-01-29T23:36:40.899Z,14.53
2023-01-29T23:39:07.867Z,14.37
2023-01-29T23:41:34.624Z,14.03
2023-01-29T23:44:01.356Z,14.37
2023-01-29T23:46:28.046Z,13.83
2023-01-29T23:48:54.736Z,14.10
2023-01-29T23:51:21.464Z,13.83
2023-01-29T23:53:48.092Z,14.53
2023-01-29T23:56:14.835Z,14.40
2023-01-29T23:58:41.543Z,13.50
